Time;durP1;ratioP1;P1;durP2;ratioP2;P2;SDS_P1;SDS_P2;PMS_P1;PMS_P2;Temp;Humidity;BMP_temperature;BMP_pressure;BME280_temperature;BME280_humidity;BME280_pressure;Samples;Min_cycle;Max_cycle;Signal;HPM_P1;HPM_P2
2022/03/17 00:00:46;;;;;;;146.40;108.90;;;;;;;3.21;55.64;99133.34;105431;1282;23449;-73
2022/03/17 00:03:14;;;;;;;144.30;108.60;;;;;;;3.12;55.49;99137.94;105605;1281;22576;-73
2022/03/17 00:05:42;;;;;;;153.50;111.60;;;;;;;3.05;55.68;99140.21;105736;1279;22694;-74
2022/03/17 00:08:10;;;;;;;155.60;111.20;;;;;;;2.96;55.75;99136.69;105763;1280;22902;-74
2022/03/17 00:10:38;;;;;;;156.70;111.50;;;;;;;2.88;55.84;99138.41;105659;1279;23015;-75
2022/03/17 00:13:06;;;;;;;152.70;107.50;;;;;;;2.84;55.92;99136.56;105455;1279;22582;-74
2022/03/17 00:15:34;;;;;;;146.00;101.50;;;;;;;2.80;56.11;99134.91;105644;1280;22554;-79
2022/03/17 00:18:03;;;;;;;135.60;101.00;;;;;;;2.79;56.19;99136.48;105848;1280;24247;-74
2022/03/17 00:20:31;;;;;;;148.60;108.60;;;;;;;2.77;56.32;99132.79;105764;1280;24455;-75
2022/03/17 00:23:00;;;;;;;163.70;120.30;;;;;;;2.72;56.39;99140.25;105434;1282;25315;-74
2022/03/17 00:25:29;;;;;;;171.30;120.20;;;;;;;2.67;56.56;99141.33;105596;1280;23843;-74
2022/03/17 00:27:58;;;;;;;162.10;117.20;;;;;;;2.62;56.62;99138.91;105538;1280;22734;-74
2022/03/17 00:30:26;;;;;;;155.10;111.90;;;;;;;2.55;56.58;99141.27;105661;1280;22864;-74
2022/03/17 00:32:54;;;;;;;151.60;111.00;;;;;;;2.47;56.73;99138.86;105631;1280;24247;-75
2022/03/17 00:38:13;;;;;;;151.10;115.80;;;;;;;2.32;56.83;99140.52;105454;1280;25415;-75
2022/03/17 00:40:43;;;;;;;155.30;112.40;;;;;;;2.23;57.00;99141.50;105553;1279;25540;-80
2022/03/17 00:43:12;;;;;;;145.30;109.50;;;;;;;2.15;56.95;99141.42;105639;1279;22602;-75
2022/03/17 00:45:42;;;;;;;146.60;113.10;;;;;;;2.07;57.10;99142.16;105613;1280;22743;-75
2022/03/17 00:48:10;;;;;;;150.50;111.80;;;;;;;1.99;57.22;99142.90;105646;1280;22711;-75
2022/03/17 00:50:38;;;;;;;153.70;112.00;;;;;;;1.90;57.26;99146.67;105631;1279;22577;-75
2022/03/17 00:53:06;;;;;;;150.80;108.70;;;;;;;1.80;57.38;99147.09;105624;1281;22577;-75
2022/03/17 00:55:34;;;;;;;133.20;105.00;;;;;;;1.75;57.38;99148.73;105599;1280;25683;-75
2022/03/17 00:58:02;;;;;;;129.00;101.40;;;;;;;1.72;57.53;99150.02;105635;1280;25271;-75
2022/03/17 01:00:30;;;;;;;145.30;105.20;;;;;;;1.71;57.78;99155.42;105547;1281;25536;-76
2022/03/17 01:02:58;;;;;;;142.90;106.30;;;;;;;1.70;57.82;99157.02;105632;1280;26799;-77
2022/03/17 01:05:26;;;;;;;145.60;105.90;;;;;;;1.67;57.98;99159.60;105625;1280;22563;-74
2022/03/17 01:07:54;;;;;;;151.30;109.90;;;;;;;1.58;58.07;99167.27;105650;1279;24200;-75
2022/03/17 01:10:23;;;;;;;148.50;110.20;;;;;;;1.50;58.01;99168.64;105669;1280;22604;-75
2022/03/17 01:12:51;;;;;;;156.40;112.50;;;;;;;1.42;58.35;99167.55;105650;1280;22668;-75
2022/03/17 01:15:20;;;;;;;153.30;116.10;;;;;;;1.33;58.42;99166.80;105644;1279;24440;-74
2022/03/17 01:17:49;;;;;;;160.70;117.80;;;;;;;1.24;59.18;99163.59;105612;1279;22572;-74
2022/03/17 01:20:17;;;;;;;152.50;116.50;;;;;;;1.16;59.33;99165.00;105651;1280;25538;-74
2022/03/17 01:22:45;;;;;;;151.90;109.90;;;;;;;1.10;59.21;99167.26;105612;1279;25388;-74
2022/03/17 01:25:14;;;;;;;139.70;106.40;;;;;;;1.06;59.20;99164.67;105485;1279;182161;-76
2022/03/17 01:27:42;;;;;;;134.80;102.70;;;;;;;1.02;59.20;99160.89;105726;1279;22511;-74
2022/03/17 01:30:11;;;;;;;140.50;106.60;;;;;;;1.00;59.39;99162.56;105555;1279;22715;-74
2022/03/17 01:32:39;;;;;;;149.30;107.20;;;;;;;0.98;59.49;99163.55;105327;1280;26313;-75
2022/03/17 01:35:09;;;;;;;147.70;110.00;;;;;;;0.97;59.76;99166.94;105572;1280;22554;-75
2022/03/17 01:37:37;;;;;;;153.40;114.50;;;;;;;0.93;59.78;99164.24;105263;1282;22721;-75
2022/03/17 01:40:09;;;;;;;162.10;118.40;;;;;;;0.89;59.89;99169.99;105621;1279;22573;-75
2022/03/17 01:42:39;;;;;;;150.80;114.20;;;;;;;0.86;60.05;99170.49;105691;1279;22560;-75
2022/03/17 01:45:08;;;;;;;166.50;117.80;;;;;;;0.82;60.14;99174.73;105706;1280;22548;-75
2022/03/17 01:47:37;;;;;;;157.60;114.50;;;;;;;0.77;60.11;99176.73;105669;1280;25264;-75
2022/03/17 01:50:08;;;;;;;151.40;115.80;;;;;;;0.73;60.43;99175.63;105617;1280;22801;-75
2022/03/17 01:52:36;;;;;;;153.20;111.20;;;;;;;0.63;60.77;99177.91;105592;1280;25261;-75
2022/03/17 01:55:05;;;;;;;149.70;108.60;;;;;;;0.58;60.46;99177.58;105608;1279;24480;-75
2022/03/17 01:57:33;;;;;;;141.80;106.90;;;;;;;0.55;60.42;99180.30;105588;1280;22547;-75
2022/03/17 02:00:04;;;;;;;150.60;109.80;;;;;;;0.55;60.30;99182.14;105852;1279;22571;-75
2022/03/17 02:02:41;;;;;;;141.70;106.80;;;;;;;0.53;60.44;99182.14;105442;1281;24425;-74
2022/03/17 02:05:09;;;;;;;146.80;111.00;;;;;;;0.50;60.53;99182.70;105465;1279;22554;-76
2022/03/17 02:07:38;;;;;;;151.40;114.30;;;;;;;0.47;60.80;99181.27;105722;1279;24334;-75
2022/03/17 02:10:06;;;;;;;137.90;109.10;;;;;;;0.46;60.90;99180.33;105712;1279;25605;-76
2022/03/17 02:15:20;;;;;;;129.10;104.10;;;;;;;0.44;61.30;99177.20;105394;1279;23164;-77
2022/03/17 02:17:48;;;;;;;122.30;100.80;;;;;;;0.48;61.48;99175.00;105643;1280;24532;-75
2022/03/17 02:20:16;;;;;;;113.60;97.20;;;;;;;0.53;61.45;99175.23;105372;1281;24335;-74
2022/03/17 02:22:47;;;;;;;109.90;95.60;;;;;;;0.62;61.65;99175.09;105603;1279;25436;-75
2022/03/17 02:25:35;;;;;;;115.70;99.50;;;;;;;0.73;61.59;99173.02;105589;1279;22561;-76
2022/03/17 02:28:06;;;;;;;109.10;97.30;;;;;;;0.87;61.58;99173.36;105702;1279;25332;-77
2022/03/17 02:30:37;;;;;;;110.80;96.60;;;;;;;0.96;61.90;99172.80;105884;1279;24276;-76
2022/03/17 02:33:08;;;;;;;116.70;99.90;;;;;;;1.07;62.43;99168.20;105484;1279;24245;-75
2022/03/17 02:35:39;;;;;;;114.40;98.40;;;;;;;1.19;62.32;99168.05;105378;1280;22625;-74
2022/03/17 02:38:08;;;;;;;119.50;101.00;;;;;;;1.28;62.23;99169.10;105620;1279;25452;-74
2022/03/17 02:40:36;;;;;;;121.10;102.40;;;;;;;1.34;62.11;99175.67;105524;1280;22747;-75
2022/03/17 02:43:05;;;;;;;125.00;99.50;;;;;;;1.39;62.09;99182.64;105563;1279;24450;-75
2022/03/17 02:45:34;;;;;;;110.60;93.20;;;;;;;1.44;61.96;99185.82;105608;1279;22559;-75
2022/03/17 02:48:04;;;;;;;114.90;94.30;;;;;;;1.50;61.87;99186.83;105534;1280;22635;-75
2022/03/17 02:50:34;;;;;;;115.70;95.70;;;;;;;1.54;62.06;99186.73;105547;1280;25337;-76
2022/03/17 02:53:10;;;;;;;121.00;99.70;;;;;;;1.56;62.02;99184.16;105590;1280;22705;-75
2022/03/17 02:55:40;;;;;;;118.20;98.80;;;;;;;1.58;62.05;99182.06;105529;1280;22566;-75
2022/03/17 02:58:10;;;;;;;119.10;101.80;;;;;;;1.58;62.24;99181.25;105397;1280;24389;-75
2022/03/17 03:00:39;;;;;;;120.20;96.80;;;;;;;1.58;62.23;99184.08;105638;1279;24865;-74
2022/03/17 03:03:07;;;;;;;116.20;100.40;;;;;;;1.58;62.21;99192.29;105448;1280;22553;-75
2022/03/17 03:05:35;;;;;;;110.40;98.70;;;;;;;1.56;62.19;99193.77;105627;1279;25359;-75
2022/03/17 03:08:03;;;;;;;121.60;99.10;;;;;;;1.53;62.21;99193.64;105624;1279;25433;-75
2022/03/17 03:10:31;;;;;;;114.10;96.90;;;;;;;1.52;61.99;99197.44;105603;1279;22596;-75
2022/03/17 03:13:00;;;;;;;106.20;95.00;;;;;;;1.53;62.18;99192.22;105620;1279;22563;-75
2022/03/17 03:15:29;;;;;;;118.70;95.10;;;;;;;1.56;62.26;99191.98;105577;1279;22555;-75
2022/03/17 03:18:00;;;;;;;113.30;96.00;;;;;;;1.59;62.28;99190.04;105613;1280;22705;-75
2022/03/17 03:20:28;;;;;;;103.40;91.20;;;;;;;1.60;62.37;99192.73;105626;1279;24327;-75
2022/03/17 03:22:57;;;;;;;128.20;99.20;;;;;;;1.60;62.54;99196.33;105562;1279;22737;-75
2022/03/17 03:25:25;;;;;;;116.40;97.50;;;;;;;1.56;62.79;99198.55;105406;1279;22622;-75
2022/03/17 03:27:53;;;;;;;112.20;97.20;;;;;;;1.53;62.65;99203.70;105366;1280;25376;-76
2022/03/17 03:30:21;;;;;;;119.20;95.90;;;;;;;1.51;62.83;99212.85;105694;1279;25332;-77
2022/03/17 03:32:49;;;;;;;117.00;97.20;;;;;;;1.50;63.02;99221.33;105634;1279;22762;-75
2022/03/17 03:38:04;;;;;;;110.60;96.20;;;;;;;1.48;62.71;99233.30;105644;1279;22557;-76
2022/03/17 03:40:32;;;;;;;106.90;95.40;;;;;;;1.51;62.81;99236.44;105673;1279;22563;-74
2022/03/17 03:42:59;;;;;;;121.00;99.40;;;;;;;1.54;62.89;99237.13;105555;1280;25771;-75
2022/03/17 03:45:28;;;;;;;109.20;96.90;;;;;;;1.55;62.87;99244.77;105509;1279;24436;-75
2022/03/17 03:47:56;;;;;;;112.70;96.80;;;;;;;1.53;62.84;99243.46;105393;1280;22578;-75
2022/03/17 03:50:25;;;;;;;116.90;97.00;;;;;;;1.50;62.84;99243.84;105653;1279;26735;-74
2022/03/17 03:52:53;;;;;;;117.30;101.50;;;;;;;1.47;62.96;99251.36;105678;1280;22908;-74
2022/03/17 03:55:21;;;;;;;131.30;103.10;;;;;;;1.43;62.80;99251.19;105646;1279;25227;-75
2022/03/17 03:57:50;;;;;;;130.10;102.90;;;;;;;1.39;62.86;99256.32;105639;1279;25281;-75
2022/03/17 04:03:07;;;;;;;121.20;100.50;;;;;;;1.21;62.72;99257.95;105549;1279;22873;-75
2022/03/17 04:05:37;;;;;;;131.30;99.70;;;;;;;1.10;62.81;99249.70;105667;1281;23862;-76
2022/03/17 04:08:04;;;;;;;113.40;96.70;;;;;;;1.02;62.97;99248.11;105632;1279;22559;-76
2022/03/17 04:10:32;;;;;;;118.80;99.70;;;;;;;0.99;62.92;99247.17;105677;1280;22553;-76
2022/03/17 04:13:01;;;;;;;116.60;99.60;;;;;;;0.97;63.09;99246.27;105622;1279;22560;-76
2022/03/17 04:15:29;;;;;;;114.20;100.60;;;;;;;0.95;63.09;99247.13;105626;1279;24223;-75
2022/03/17 04:17:57;;;;;;;117.80;100.50;;;;;;;0.91;63.25;99245.58;105638;1279;22690;-75
2022/03/17 04:20:25;;;;;;;123.30;100.70;;;;;;;0.85;63.40;99247.15;105604;1279;23833;-75
2022/03/17 04:22:53;;;;;;;124.30;103.00;;;;;;;0.81;63.40;99248.79;105638;1279;23957;-75
2022/03/17 04:25:21;;;;;;;130.50;109.80;;;;;;;0.76;63.46;99246.14;105619;1279;23794;-75
2022/03/17 04:27:49;;;;;;;140.10;109.60;;;;;;;0.71;63.52;99248.23;105661;1279;22732;-75
2022/03/17 04:30:17;;;;;;;138.90;109.80;;;;;;;0.63;63.64;99249.86;105636;1279;22564;-75
2022/03/17 04:32:45;;;;;;;121.60;105.90;;;;;;;0.56;63.62;99253.48;105641;1279;22496;-75
2022/03/17 04:35:13;;;;;;;122.30;102.60;;;;;;;0.50;63.54;99256.02;105605;1280;22545;-74
2022/03/17 04:37:41;;;;;;;123.10;98.10;;;;;;;0.48;63.57;99257.54;105532;1279;22565;-75
2022/03/17 04:40:10;;;;;;;113.10;95.50;;;;;;;0.50;63.84;99255.58;105503;1280;24404;-74
2022/03/17 04:42:38;;;;;;;109.70;97.50;;;;;;;0.53;64.10;99256.40;105639;1279;22558;-75
2022/03/17 04:45:06;;;;;;;107.00;95.30;;;;;;;0.55;64.57;99254.16;105434;1280;22707;-75
2022/03/17 04:47:34;;;;;;;106.40;94.00;;;;;;;0.56;64.45;99258.45;105671;1279;22647;-75
2022/03/17 04:50:02;;;;;;;108.20;95.60;;;;;;;0.56;64.37;99255.60;105614;1280;23936;-76
2022/03/17 04:55:16;;;;;;;112.20;100.40;;;;;;;0.56;64.37;99270.82;105632;1279;22565;-75
2022/03/17 04:57:46;;;;;;;106.80;94.70;;;;;;;0.54;64.20;99277.05;105634;1279;22569;-75
2022/03/17 05:00:14;;;;;;;114.60;97.90;;;;;;;0.53;64.33;99279.90;105684;1279;22776;-76
2022/03/17 05:02:42;;;;;;;106.90;95.20;;;;;;;0.49;64.31;99281.61;105639;1279;25440;-74
2022/03/17 05:05:11;;;;;;;102.80;90.80;;;;;;;0.48;64.26;99278.30;105649;1279;25380;-75
2022/03/17 05:07:38;;;;;;;102.00;90.70;;;;;;;0.47;64.32;99279.03;105612;1279;22554;-75
2022/03/17 05:10:07;;;;;;;100.40;89.10;;;;;;;0.47;64.20;99286.70;105622;1279;24285;-74
2022/03/17 05:12:35;;;;;;;123.80;99.30;;;;;;;0.45;64.39;99290.24;105621;1280;22563;-75
2022/03/17 05:15:03;;;;;;;138.90;107.80;;;;;;;0.43;64.41;99295.63;105616;1279;25506;-75
2022/03/17 05:17:33;;;;;;;146.30;107.20;;;;;;;0.43;64.40;99299.54;105634;1279;24419;-75
2022/03/17 05:20:02;;;;;;;142.30;109.80;;;;;;;0.39;64.10;99305.70;105635;1279;22568;-75
2022/03/17 05:22:30;;;;;;;148.30;113.40;;;;;;;0.32;64.17;99305.20;105590;1279;25534;-75
2022/03/17 05:24:57;;;;;;;159.20;122.90;;;;;;;0.21;64.38;99299.17;105645;1279;24429;-74
2022/03/17 05:27:25;;;;;;;157.50;117.60;;;;;;;0.15;64.27;99302.27;105640;1279;24716;-74
2022/03/17 05:29:53;;;;;;;149.90;108.20;;;;;;;0.12;64.39;99297.08;105675;1279;22559;-75
2022/03/17 05:32:21;;;;;;;124.60;98.60;;;;;;;0.10;64.35;99300.37;105483;1279;22571;-75
2022/03/17 05:34:49;;;;;;;128.80;99.70;;;;;;;0.11;64.41;99302.14;105650;1279;25153;-75
2022/03/17 05:37:17;;;;;;;119.30;99.90;;;;;;;0.10;64.74;99307.67;105678;1277;22936;-75
2022/03/17 05:39:45;;;;;;;120.00;97.70;;;;;;;0.10;64.77;99307.52;105542;1279;24448;-76
2022/03/17 05:42:12;;;;;;;129.70;102.40;;;;;;;0.10;64.81;99307.67;105671;1279;22551;-76
2022/03/17 05:44:40;;;;;;;134.80;101.40;;;;;;;0.09;64.98;99302.32;105557;1279;22665;-75
2022/03/17 05:47:08;;;;;;;122.40;100.10;;;;;;;0.12;65.00;99302.13;105529;1279;22558;-75
2022/03/17 05:49:36;;;;;;;126.50;99.70;;;;;;;0.12;65.03;99295.63;105440;1280;25587;-75
2022/03/17 05:52:04;;;;;;;122.60;98.50;;;;;;;0.13;65.06;99294.35;105602;1279;22565;-75
2022/03/17 05:54:32;;;;;;;103.00;88.80;;;;;;;0.16;65.40;99290.50;105600;1279;24735;-76
2022/03/17 05:57:00;;;;;;;109.50;91.70;;;;;;;0.20;65.88;99287.73;105613;1279;25437;-75
2022/03/17 05:59:28;;;;;;;102.60;91.40;;;;;;;0.24;65.64;99283.15;105595;1279;24464;-74
2022/03/17 06:01:56;;;;;;;105.20;92.80;;;;;;;0.28;65.98;99287.89;105586;1279;24246;-75
2022/03/17 06:04:43;;;;;;;110.50;93.30;;;;;;;0.33;66.51;99286.68;105261;1280;25389;-76
2022/03/17 06:07:11;;;;;;;107.10;95.60;;;;;;;0.37;66.64;99287.57;105593;1279;22571;-76
2022/03/17 06:09:39;;;;;;;112.50;91.90;;;;;;;0.42;66.42;99282.64;105657;1279;25697;-76
2022/03/17 06:12:08;;;;;;;104.90;92.90;;;;;;;0.51;66.55;99283.04;105470;1279;25440;-75
2022/03/17 06:14:36;;;;;;;119.20;94.90;;;;;;;0.60;67.22;99280.70;105507;1279;22707;-76
2022/03/17 06:17:04;;;;;;;108.30;93.30;;;;;;;0.70;67.11;99283.02;105469;1279;25364;-76
2022/03/17 06:19:32;;;;;;;103.00;90.40;;;;;;;0.78;67.36;99288.74;105487;1279;23516;-74
2022/03/17 06:22:00;;;;;;;117.90;91.30;;;;;;;0.85;67.34;99292.27;105527;1279;23976;-75
2022/03/17 06:24:28;;;;;;;101.50;90.40;;;;;;;0.93;67.71;99294.27;105657;1279;22758;-75
2022/03/17 06:26:56;;;;;;;92.70;80.60;;;;;;;1.00;67.34;99297.97;105565;1279;25405;-76
2022/03/17 06:29:24;;;;;;;96.90;86.50;;;;;;;1.09;67.15;99301.20;105523;1279;25272;-77
2022/03/17 06:31:51;;;;;;;96.50;86.40;;;;;;;1.18;67.19;99300.32;105476;1279;23942;-74
2022/03/17 06:34:19;;;;;;;97.50;86.80;;;;;;;1.27;67.05;99302.85;105653;1279;24522;-73
2022/03/17 06:36:47;;;;;;;98.60;88.20;;;;;;;1.33;66.91;99303.88;105615;1279;25443;-74
2022/03/17 06:39:15;;;;;;;98.60;87.90;;;;;;;1.37;66.91;99308.13;105609;1279;24396;-72
2022/03/17 06:41:43;;;;;;;99.40;88.20;;;;;;;1.41;66.87;99314.33;105537;1279;22551;-75
2022/03/17 06:44:11;;;;;;;91.60;82.00;;;;;;;1.45;66.75;99319.61;105667;1279;22555;-73
2022/03/17 06:46:38;;;;;;;94.10;82.90;;;;;;;1.53;66.72;99322.66;105683;1279;25449;-73
2022/03/17 06:49:06;;;;;;;93.90;84.50;;;;;;;1.62;66.65;99317.92;105634;1279;22686;-73
2022/03/17 06:51:34;;;;;;;91.30;82.40;;;;;;;1.72;66.44;99322.20;105606;1279;22551;-74
2022/03/17 06:54:02;;;;;;;93.10;83.80;;;;;;;1.80;66.59;99322.00;105613;1279;22608;-77
2022/03/17 06:56:31;;;;;;;96.00;84.10;;;;;;;1.87;66.40;99318.59;105712;1279;22486;-74
2022/03/17 06:58:59;;;;;;;89.60;80.50;;;;;;;1.94;66.47;99318.33;105491;1280;22724;-74
2022/03/17 07:01:27;;;;;;;88.60;79.20;;;;;;;2.03;66.18;99316.55;105751;1280;23257;-75
2022/03/17 07:03:55;;;;;;;86.30;77.50;;;;;;;2.11;66.14;99320.58;105604;1279;24562;-74
2022/03/17 07:06:23;;;;;;;85.60;76.80;;;;;;;2.20;66.04;99330.73;105521;1280;22560;-76
2022/03/17 07:08:50;;;;;;;85.00;76.40;;;;;;;2.28;65.80;99336.02;105620;1279;22649;-74
2022/03/17 07:11:21;;;;;;;90.30;77.40;;;;;;;2.37;65.65;99342.52;105661;1279;22557;-74
2022/03/17 07:13:49;;;;;;;85.10;76.90;;;;;;;2.42;65.44;99344.58;105586;1280;24405;-75
2022/03/17 07:16:18;;;;;;;86.20;77.10;;;;;;;2.47;65.25;99348.38;105614;1279;26651;-75
2022/03/17 07:18:47;;;;;;;79.30;71.10;;;;;;;2.53;65.04;99351.95;105656;1279;25322;-75
2022/03/17 07:21:16;;;;;;;83.50;74.90;;;;;;;2.61;65.03;99352.66;105708;1279;22564;-74
2022/03/17 07:23:43;;;;;;;81.10;72.90;;;;;;;2.70;65.04;99351.91;105504;1279;24399;-75
2022/03/17 07:26:12;;;;;;;80.20;72.90;;;;;;;2.77;64.85;99351.31;105546;1279;24242;-75
2022/03/17 07:28:40;;;;;;;82.00;73.40;;;;;;;2.81;64.61;99356.77;105600;1279;24546;-75
2022/03/17 07:31:07;;;;;;;80.40;71.00;;;;;;;2.83;64.38;99355.84;105622;1279;23792;-74
2022/03/17 07:33:37;;;;;;;82.00;74.30;;;;;;;2.86;64.40;99362.45;105634;1279;22554;-74
2022/03/17 07:36:06;;;;;;;79.80;72.20;;;;;;;2.91;64.17;99364.11;105628;1279;22548;-74
2022/03/17 07:38:33;;;;;;;80.90;72.50;;;;;;;2.97;64.25;99365.91;105603;1279;22765;-72
2022/03/17 07:41:01;;;;;;;80.50;72.70;;;;;;;3.05;64.11;99371.25;105610;1279;22594;-73
2022/03/17 07:43:30;;;;;;;76.60;68.70;;;;;;;3.12;64.02;99373.00;105656;1279;24162;-74
2022/03/17 07:46:19;;;;;;;75.80;67.90;;;;;;;3.20;63.86;99375.73;105415;1279;25570;-74
2022/03/17 07:49:05;;;;;;;76.50;69.20;;;;;;;3.29;63.63;99386.71;105442;1279;22568;-73
2022/03/17 07:51:39;;;;;;;71.90;65.20;;;;;;;3.36;63.24;99395.60;105634;1279;22563;-74
2022/03/17 07:54:07;;;;;;;71.60;65.10;;;;;;;3.42;62.93;99399.54;105628;1279;22612;-75
2022/03/17 07:56:37;;;;;;;74.90;63.00;;;;;;;3.48;62.78;99403.44;105218;1281;22648;-74
2022/03/17 07:59:05;;;;;;;71.30;63.70;;;;;;;3.53;62.85;99409.92;105538;1279;22563;-74
2022/03/17 08:01:33;;;;;;;67.10;61.20;;;;;;;3.64;62.60;99419.11;105631;1279;24626;-75
2022/03/17 08:04:01;;;;;;;87.10;64.40;;;;;;;3.70;62.08;99419.39;105633;1279;22560;-74
2022/03/17 08:06:29;;;;;;;68.90;62.50;;;;;;;3.75;62.26;99415.84;105349;1282;25344;-74
2022/03/17 08:08:57;;;;;;;72.20;65.00;;;;;;;3.82;62.16;99419.39;105375;1282;24078;-74
2022/03/17 08:11:25;;;;;;;68.10;61.40;;;;;;;3.92;62.07;99419.27;105360;1282;22721;-73
2022/03/17 08:13:53;;;;;;;67.20;60.20;;;;;;;4.00;62.08;99418.50;105347;1282;22625;-74
2022/03/17 08:16:21;;;;;;;82.40;64.00;;;;;;;4.09;61.60;99420.09;105622;1279;25430;-74
2022/03/17 08:18:49;;;;;;;122.50;60.30;;;;;;;4.19;61.36;99420.43;105642;1279;22576;-78
2022/03/17 08:21:18;;;;;;;62.80;56.10;;;;;;;4.27;60.69;99423.92;105523;1279;22715;-74
2022/03/17 08:23:46;;;;;;;62.40;56.30;;;;;;;4.36;60.78;99418.66;105571;1279;24233;-75
2022/03/17 08:26:16;;;;;;;65.20;58.60;;;;;;;4.46;60.69;99424.21;105621;1279;23216;-74
2022/03/17 08:28:44;;;;;;;59.50;53.20;;;;;;;4.56;60.32;99423.75;105664;1279;22559;-74
2022/03/17 08:31:14;;;;;;;58.80;53.40;;;;;;;4.64;59.94;99424.45;105700;1279;22557;-75
2022/03/17 08:33:42;;;;;;;55.90;50.10;;;;;;;4.74;59.53;99424.13;105635;1279;22706;-74
2022/03/17 08:36:10;;;;;;;61.10;54.50;;;;;;;4.82;59.49;99424.20;105626;1279;25530;-75
2022/03/17 08:38:38;;;;;;;58.70;53.00;;;;;;;4.91;59.35;99424.02;105627;1279;25382;-75
2022/03/17 08:41:06;;;;;;;60.30;54.30;;;;;;;5.00;59.66;99425.50;105617;1279;23128;-74
2022/03/17 08:43:33;;;;;;;61.20;52.50;;;;;;;5.13;59.13;99426.16;105655;1279;22855;-76
2022/03/17 08:51:36;;;;;;;54.30;45.80;;;;;;;5.36;56.57;99434.02;105673;1279;24251;-74
2022/03/17 08:54:04;;;;;;;47.10;42.30;;;;;;;5.40;56.81;99435.55;105862;1279;25415;-74
2022/03/17 08:56:36;;;;;;;51.10;44.20;;;;;;;5.48;56.11;99430.28;105854;1279;24367;-74
2022/03/17 08:59:06;;;;;;;49.90;44.80;;;;;;;5.57;56.03;99440.42;105829;1279;22540;-75
2022/03/17 09:01:37;;;;;;;45.10;40.70;;;;;;;5.63;55.28;99438.70;105833;1279;24295;-75
2022/03/17 09:04:05;;;;;;;48.20;40.90;;;;;;;5.68;55.29;99438.04;105637;1281;26755;-75
2022/03/17 09:06:35;;;;;;;45.40;41.00;;;;;;;5.74;54.99;99441.46;105779;1279;22879;-74
2022/03/17 09:09:03;;;;;;;43.30;39.50;;;;;;;5.85;56.16;99440.88;105821;1279;25376;-74
2022/03/17 09:11:34;;;;;;;45.90;41.30;;;;;;;6.01;56.13;99442.46;106192;1281;25639;-75
2022/03/17 09:14:08;;;;;;;43.70;39.50;;;;;;;6.16;54.87;99439.49;105796;1279;22563;-75
2022/03/17 09:16:35;;;;;;;44.60;40.30;;;;;;;6.23;54.49;99440.15;105818;1279;22714;-74
2022/03/17 09:19:03;;;;;;;45.10;40.60;;;;;;;6.33;54.76;99442.25;105792;1279;24243;-74
2022/03/17 09:21:32;;;;;;;44.00;39.40;;;;;;;6.47;54.98;99443.08;106228;1279;22704;-75
2022/03/17 09:24:00;;;;;;;44.30;40.30;;;;;;;6.58;54.33;99446.45;106526;1280;22641;-75
2022/03/17 09:26:28;;;;;;;42.80;38.70;;;;;;;6.71;54.89;99445.27;105721;1281;22557;-76
2022/03/17 09:28:56;;;;;;;38.90;35.50;;;;;;;6.85;53.59;99447.19;105655;1281;22555;-76
2022/03/17 09:31:24;;;;;;;40.50;36.60;;;;;;;6.95;53.13;99454.35;105656;1281;25402;-75
2022/03/17 09:33:52;;;;;;;41.50;37.30;;;;;;;7.02;53.21;99457.89;105664;1281;25733;-75
2022/03/17 09:36:19;;;;;;;47.40;37.90;;;;;;;7.10;53.31;99458.30;105725;1281;22709;-75
2022/03/17 09:41:35;;;;;;;43.10;34.20;;;;;;;7.21;52.45;99457.67;105693;1281;24321;-74
2022/03/17 09:44:03;;;;;;;90.50;38.60;;;;;;;7.29;53.08;99460.19;105645;1281;23256;-75
2022/03/17 09:46:32;;;;;;;39.20;35.10;;;;;;;7.38;52.24;99460.89;105892;1281;22698;-75
2022/03/17 09:49:01;;;;;;;41.80;37.70;;;;;;;7.44;51.93;99460.48;105577;1282;23197;-74
2022/03/17 09:51:29;;;;;;;39.10;35.40;;;;;;;7.53;51.46;99465.98;105674;1281;25409;-74
2022/03/17 09:54:00;;;;;;;39.60;35.70;;;;;;;7.55;50.72;99466.51;105654;1281;22562;-74
2022/03/17 09:56:28;;;;;;;41.90;36.80;;;;;;;7.51;50.24;99467.25;105679;1281;25381;-75
2022/03/17 09:58:59;;;;;;;38.30;34.50;;;;;;;7.52;50.87;99466.03;105670;1281;22701;-75
2022/03/17 10:01:28;;;;;;;38.40;34.30;;;;;;;7.61;51.09;99465.98;105700;1281;22689;-75
2022/03/17 10:04:02;;;;;;;43.60;36.10;;;;;;;7.73;50.70;99471.73;105687;1281;23847;-74
2022/03/17 10:06:30;;;;;;;40.80;35.40;;;;;;;7.82;50.09;99469.73;105669;1281;22562;-74
2022/03/17 10:08:59;;;;;;;37.50;33.70;;;;;;;7.89;50.52;99473.39;105658;1281;25363;-75
2022/03/17 10:11:31;;;;;;;40.10;36.10;;;;;;;7.96;50.42;99470.13;105636;1281;23393;-75
2022/03/17 10:14:05;;;;;;;43.00;35.30;;;;;;;8.05;50.35;99473.08;105597;1282;22577;-75
2022/03/17 10:16:33;;;;;;;36.00;32.40;;;;;;;8.14;49.62;99470.31;105435;1282;22644;-74
2022/03/17 10:19:07;;;;;;;35.90;32.20;;;;;;;8.19;49.63;99472.11;105546;1282;24468;-75
2022/03/17 10:21:38;;;;;;;37.00;33.10;;;;;;;8.27;49.02;99471.48;106013;1282;25475;-73
2022/03/17 10:24:09;;;;;;;44.50;35.00;;;;;;;8.30;48.32;99467.77;105596;1282;22655;-75
2022/03/17 10:26:41;;;;;;;37.20;33.50;;;;;;;8.36;48.95;99467.02;105589;1282;24101;-75
2022/03/17 10:29:09;;;;;;;44.50;36.90;;;;;;;8.43;48.30;99474.44;105623;1282;25594;-76
2022/03/17 10:31:55;;;;;;;42.30;37.90;;;;;;;8.46;48.05;99469.49;105577;1282;22753;-76
2022/03/17 10:34:29;;;;;;;41.40;36.20;;;;;;;8.43;48.02;99464.45;106226;1282;22704;-76
2022/03/17 10:37:06;;;;;;;39.50;35.50;;;;;;;8.41;47.80;99471.27;107523;1281;25418;-75
2022/03/17 10:39:44;;;;;;;39.80;35.70;;;;;;;8.52;48.52;99469.16;105586;1282;24424;-75
2022/03/17 10:42:15;;;;;;;37.00;33.60;;;;;;;8.67;48.14;99464.80;105620;1282;24251;-76
2022/03/17 10:44:48;;;;;;;35.70;32.00;;;;;;;8.78;47.31;99474.89;105494;1282;22577;-76
2022/03/17 10:47:26;;;;;;;107.40;36.00;;;;;;;8.77;46.15;99474.02;105444;1282;22553;-76
2022/03/17 10:50:04;;;;;;;36.30;32.60;;;;;;;8.75;46.08;99474.31;105458;1282;22552;-76
2022/03/17 10:52:45;;;;;;;36.80;33.10;;;;;;;8.78;47.40;99463.93;105173;1282;22582;-77
2022/03/17 10:55:14;;;;;;;34.30;30.70;;;;;;;8.89;46.60;99457.47;105425;1282;22741;-76
2022/03/17 10:57:43;;;;;;;33.30;29.70;;;;;;;8.94;45.77;99453.49;105775;1282;22592;-76
2022/03/17 11:00:22;;;;;;;34.40;30.80;;;;;;;8.98;45.83;99458.11;105765;1282;25348;-76
2022/03/17 11:02:53;;;;;;;50.00;33.50;;;;;;;9.06;46.72;99464.88;105442;1282;22710;-76
2022/03/17 11:05:22;;;;;;;38.90;34.90;;;;;;;9.20;45.31;99462.08;105412;1282;22565;-74
2022/03/17 11:07:51;;;;;;;34.60;31.40;;;;;;;9.23;45.64;99462.39;105417;1282;22716;-78
2022/03/17 11:10:22;;;;;;;35.80;32.10;;;;;;;9.33;44.93;99467.39;105884;1282;22622;-79
2022/03/17 11:12:52;;;;;;;36.00;32.50;;;;;;;9.35;45.14;99460.60;105944;1281;25448;-76
2022/03/17 11:15:27;;;;;;;35.80;32.50;;;;;;;9.37;44.32;99460.17;105822;1282;25448;-77
2022/03/17 11:17:58;;;;;;;;;;;;;;;9.42;45.25;99456.80;105768;1282;22707;-77
2022/03/17 11:20:29;;;;;;;37.10;33.20;;;;;;;9.52;44.87;99455.30;105262;1282;22565;-80
2022/03/17 11:23:09;;;;;;;38.40;32.10;;;;;;;9.58;44.31;99451.36;105989;1281;24457;-77
2022/03/17 11:25:38;;;;;;;32.90;29.50;;;;;;;9.64;44.84;99451.75;105522;1281;25502;-81
2022/03/17 11:28:08;;;;;;;64.60;31.30;;;;;;;9.77;44.45;99458.92;105759;1282;22698;-78
2022/03/17 11:30:47;;;;;;;37.20;27.20;;;;;;;9.86;43.77;99466.07;105899;1281;23373;-77
2022/03/17 11:33:23;;;;;;;31.90;24.60;;;;;;;9.94;43.39;99462.95;105543;1281;25298;-77
2022/03/17 11:36:00;;;;;;;28.40;23.70;;;;;;;9.96;43.34;99460.06;105582;1281;25208;-81
2022/03/17 11:38:38;;;;;;;27.00;23.20;;;;;;;10.05;43.61;99460.99;105758;1282;25367;-77
2022/03/17 11:41:10;;;;;;;66.70;25.00;;;;;;;10.09;42.82;99455.15;105962;1281;22666;-77